createdAt,value
2023-05-05T00:01:47.603Z,12.99
2023-05-05T00:04:20.951Z,12.96
2023-05-05T00:06:52.576Z,13.01
2023-05-05T00:09:23.082Z,13.03
2023-05-05T00:12:00.714Z,12.94
2023-05-05T00:14:30.547Z,13.04
2023-05-05T00:16:59.327Z,12.91
2023-05-05T00:19:28.200Z,13.19
2023-05-05T00:21:58.173Z,13.22
2023-05-05T00:24:27.011Z,13.22
2023-05-05T00:26:55.751Z,13.26
2023-05-05T00:29:23.882Z,13.29
2023-05-05T00:31:56.716Z,13.33
2023-05-05T00:34:25.446Z,13.34
2023-05-05T00:36:53.584Z,13.35
2023-05-05T00:39:23.621Z,13.42
2023-05-05T00:41:51.964Z,13.41
2023-05-05T00:44:35.965Z,13.38
2023-05-05T00:47:06.647Z,13.29
2023-05-05T00:49:41.472Z,13.20
2023-05-05T00:52:12.627Z,13.12
2023-05-05T00:54:49.091Z,13.22
2023-05-05T00:57:18.503Z,13.21
2023-05-05T00:59:54.204Z,13.16
2023-05-05T01:02:24.715Z,13.18
2023-05-05T01:04:56.230Z,13.17
2023-05-05T01:07:34.592Z,13.16
2023-05-05T01:10:20.734Z,13.13
2023-05-05T01:12:55.467Z,13.18
2023-05-05T01:15:33.332Z,13.18
2023-05-05T01:18:09.033Z,13.15
2023-05-05T01:20:50.417Z,13.17
2023-05-05T01:23:35.973Z,13.12
2023-05-05T01:26:22.866Z,13.01
2023-05-05T01:29:24.087Z,13.10
2023-05-05T01:31:57.476Z,13.09
2023-05-05T01:34:32.576Z,13.03
2023-05-05T01:37:11.594Z,12.99
2023-05-05T01:39:42.815Z,12.97
2023-05-05T01:42:15.174Z,12.88
2023-05-05T01:44:45.409Z,12.77
2023-05-05T01:47:22.429Z,12.68
2023-05-05T01:49:53.660Z,12.57
2023-05-05T01:52:23.947Z,12.63
2023-05-05T01:54:57.653Z,12.42
2023-05-05T01:57:31.408Z,12.53
2023-05-05T02:00:03.380Z,12.57
2023-05-05T02:02:34.982Z,12.56
2023-05-05T02:05:04.782Z,12.44
2023-05-05T02:07:36.545Z,12.44
2023-05-05T02:10:10.174Z,12.44
2023-05-05T02:12:42.220Z,12.44
2023-05-05T02:15:12.628Z,12.46
2023-05-05T02:17:45.172Z,12.45
2023-05-05T02:20:16.612Z,12.45
2023-05-05T02:22:46.176Z,12.48
2023-05-05T02:25:17.900Z,12.46
2023-05-05T02:27:53.933Z,12.38
2023-05-05T02:30:24.630Z,12.47
2023-05-05T02:33:01.436Z,12.52
2023-05-05T02:35:37.118Z,12.52
2023-05-05T02:38:07.860Z,12.57
2023-05-05T02:40:36.985Z,12.43
2023-05-05T02:43:09.391Z,12.45
2023-05-05T02:45:37.813Z,12.56
2023-05-05T02:48:08.374Z,12.62
2023-05-05T02:50:39.488Z,12.64
2023-05-05T02:53:07.985Z,12.64
2023-05-05T02:55:45.671Z,12.61
2023-05-05T02:58:23.888Z,12.56
2023-05-05T03:01:00.988Z,12.67
2023-05-05T03:03:41.939Z,12.69
2023-05-05T03:06:16.504Z,12.53
2023-05-05T03:08:55.493Z,12.71
2023-05-05T03:11:29.770Z,12.72
2023-05-05T03:14:08.904Z,12.73
2023-05-05T03:16:40.563Z,12.78
2023-05-05T03:19:13.277Z,12.81
2023-05-05T03:21:45.240Z,12.90
2023-05-05T03:24:17.305Z,12.94
2023-05-05T03:26:46.874Z,12.94
2023-05-05T03:29:16.892Z,12.97
2023-05-05T03:31:46.238Z,12.93
2023-05-05T03:34:18.471Z,12.86
2023-05-05T03:36:47.408Z,12.96
2023-05-05T03:39:19.005Z,12.90
2023-05-05T03:41:51.301Z,12.84
2023-05-05T03:44:21.027Z,12.87
2023-05-05T03:46:49.611Z,12.92
2023-05-05T03:49:19.480Z,13.00
2023-05-05T03:51:48.994Z,12.87
2023-05-05T03:54:18.592Z,13.09
2023-05-05T03:56:47.365Z,13.12
2023-05-05T03:59:17.384Z,13.01
2023-05-05T04:01:47.081Z,13.18
2023-05-05T04:04:16.231Z,13.19
2023-05-05T04:06:46.329Z,13.26
2023-05-05T04:09:15.523Z,13.30
2023-05-05T04:11:45.717Z,13.38
2023-05-05T04:14:14.454Z,13.44
2023-05-05T04:16:46.801Z,13.39
2023-05-05T04:19:18.939Z,13.45
2023-05-05T04:21:53.401Z,13.48
2023-05-05T04:24:25.247Z,13.47
2023-05-05T04:26:54.237Z,13.45
2023-05-05T04:29:23.735Z,13.66
2023-05-05T04:31:53.965Z,13.69
2023-05-05T04:34:23.487Z,13.73
2023-05-05T04:36:53.606Z,13.73
2023-05-05T04:39:22.766Z,13.77
2023-05-05T04:41:51.850Z,13.89
2023-05-05T04:44:20.701Z,13.93
2023-05-05T04:46:49.683Z,13.77
2023-05-05T04:49:18.276Z,13.67
2023-05-05T04:51:48.362Z,13.68
2023-05-05T04:54:19.012Z,13.65
2023-05-05T04:56:49.939Z,13.41
2023-05-05T04:59:21.308Z,13.39
2023-05-05T05:01:51.028Z,13.37
2023-05-05T05:04:22.863Z,13.20
2023-05-05T05:06:53.882Z,13.29
2023-05-05T05:09:25.734Z,13.42
2023-05-05T05:11:57.927Z,13.39
2023-05-05T05:14:28.179Z,13.29
2023-05-05T05:16:58.364Z,12.96
2023-05-05T05:19:26.609Z,13.02
2023-05-05T05:21:58.393Z,12.92
2023-05-05T05:24:28.115Z,13.00
2023-05-05T05:26:56.589Z,13.12
2023-05-05T05:29:25.289Z,13.10
2023-05-05T05:31:55.976Z,12.99
2023-05-05T05:34:24.825Z,13.27
2023-05-05T05:37:00.690Z,13.56
2023-05-05T05:39:31.700Z,13.89
2023-05-05T05:42:00.693Z,14.19
2023-05-05T05:44:29.194Z,15.04
2023-05-05T05:46:57.926Z,16.40
2023-05-05T05:49:30.363Z,17.58
2023-05-05T05:51:58.927Z,18.85
2023-05-05T05:54:27.317Z,19.95
2023-05-05T05:57:00.408Z,21.13
2023-05-05T05:59:30.734Z,22.17
2023-05-05T06:02:01.643Z,23.04
2023-05-05T06:04:31.787Z,23.77
2023-05-05T06:07:01.803Z,24.05
2023-05-05T06:09:33.030Z,24.39
2023-05-05T06:12:12.297Z,24.39
2023-05-05T06:14:43.187Z,24.08
2023-05-05T06:17:12.672Z,23.98
2023-05-05T06:19:43.054Z,24.23
2023-05-05T06:22:11.836Z,24.64
2023-05-05T06:24:44.100Z,24.67
2023-05-05T06:27:15.825Z,24.94
2023-05-05T06:29:50.179Z,24.95
2023-05-05T06:32:18.571Z,24.96
2023-05-05T06:34:48.985Z,25.72
2023-05-05T06:37:21.699Z,26.24
2023-05-05T06:39:49.870Z,26.58
2023-05-05T06:42:20.055Z,26.61
2023-05-05T06:44:48.571Z,26.44
2023-05-05T06:47:17.970Z,26.58
2023-05-05T06:49:56.945Z,27.21
2023-05-05T06:52:26.657Z,27.90
2023-05-05T06:54:57.749Z,28.40
2023-05-05T06:57:27.556Z,28.83
2023-05-05T06:59:57.118Z,29.49
2023-05-05T07:02:27.465Z,30.62
2023-05-05T07:05:00.902Z,31.02
2023-05-05T07:07:32.576Z,30.58
2023-05-05T07:10:08.698Z,30.24
2023-05-05T07:12:50.882Z,29.85
2023-05-05T07:15:28.654Z,29.57
2023-05-05T07:18:03.494Z,29.35
2023-05-05T07:20:33.789Z,29.44
2023-05-05T07:23:05.570Z,29.41
2023-05-05T07:25:34.095Z,29.42
2023-05-05T07:28:06.526Z,29.41
2023-05-05T07:30:35.155Z,29.22
2023-05-05T07:33:09.110Z,29.54
2023-05-05T07:35:40.626Z,29.67
2023-05-05T07:38:11.160Z,29.74
2023-05-05T07:40:39.850Z,29.00
2023-05-05T07:43:12.416Z,28.32
2023-05-05T07:45:47.950Z,27.68
2023-05-05T07:48:28.655Z,26.90
2023-05-05T07:50:58.808Z,26.52
2023-05-05T07:53:27.235Z,26.35
2023-05-05T07:55:58.288Z,26.24
2023-05-05T07:58:28.294Z,26.14
2023-05-05T08:00:57.385Z,25.83
2023-05-05T08:03:26.977Z,26.34
2023-05-05T08:05:57.353Z,26.65
2023-05-05T08:08:27.606Z,26.42
2023-05-05T08:10:58.428Z,26.08
2023-05-05T08:13:32.039Z,25.11
2023-05-05T08:16:07.076Z,24.57
2023-05-05T08:18:40.898Z,24.02
2023-05-05T08:21:10.697Z,23.49
2023-05-05T08:23:40.159Z,22.93
2023-05-05T08:26:10.715Z,22.47
2023-05-05T08:28:40.918Z,22.16
2023-05-05T08:31:09.593Z,21.77
2023-05-05T08:33:43.395Z,21.16
2023-05-05T08:36:19.746Z,20.52
2023-05-05T08:38:50.157Z,20.00
2023-05-05T08:41:21.512Z,19.81
2023-05-05T08:43:53.406Z,19.78
2023-05-05T08:46:23.540Z,20.05
2023-05-05T08:48:57.966Z,20.10
2023-05-05T08:51:34.047Z,20.00
2023-05-05T08:54:06.440Z,19.95
2023-05-05T08:56:42.737Z,19.95
2023-05-05T08:59:17.438Z,19.52
2023-05-05T09:01:48.958Z,19.41
2023-05-05T09:04:26.933Z,19.07
2023-05-05T09:07:01.130Z,18.80
2023-05-05T09:09:33.608Z,18.57
2023-05-05T09:12:03.647Z,18.56
2023-05-05T09:14:34.754Z,18.95
2023-05-05T09:17:07.424Z,19.39
2023-05-05T09:19:59.227Z,19.62
2023-05-05T09:22:37.121Z,19.98
2023-05-05T09:25:07.259Z,20.55
2023-05-05T09:27:43.528Z,21.03
2023-05-05T09:30:17.744Z,21.94
2023-05-05T09:32:49.688Z,22.27
2023-05-05T09:35:20.398Z,21.87
2023-05-05T09:37:50.104Z,21.71
2023-05-05T09:40:20.541Z,22.51
2023-05-05T09:42:50.176Z,23.54
2023-05-05T09:45:31.315Z,24.82
2023-05-05T09:48:09.239Z,24.91
2023-05-05T09:50:44.825Z,23.75
2023-05-05T09:53:14.258Z,22.93
2023-05-05T09:55:54.575Z,22.60
2023-05-05T09:58:26.285Z,23.38
2023-05-05T10:01:02.212Z,24.10
2023-05-05T10:03:31.680Z,24.81
2023-05-05T10:06:04.869Z,26.19
2023-05-05T10:08:34.760Z,27.07
2023-05-05T10:11:13.117Z,27.41
2023-05-05T10:13:49.595Z,27.09
2023-05-05T10:16:21.085Z,27.14
2023-05-05T10:18:50.429Z,26.39
2023-05-05T10:21:23.032Z,25.51
2023-05-05T10:24:00.934Z,24.99
2023-05-05T10:26:35.330Z,25.17
2023-05-05T10:29:08.793Z,25.57
2023-05-05T10:31:47.898Z,26.09
2023-05-05T10:34:24.875Z,26.77
2023-05-05T10:36:53.732Z,27.13
2023-05-05T10:39:23.984Z,27.03
2023-05-05T10:41:56.941Z,27.14
2023-05-05T10:44:29.488Z,27.26
2023-05-05T10:47:06.440Z,27.04
2023-05-05T10:49:42.881Z,26.75
2023-05-05T10:52:19.670Z,26.40
2023-05-05T10:54:59.680Z,25.76
2023-05-05T10:57:31.098Z,25.34
2023-05-05T10:59:59.961Z,24.89
2023-05-05T11:02:31.769Z,24.18
2023-05-05T11:05:18.413Z,23.95
2023-05-05T11:07:53.811Z,23.35
2023-05-05T11:10:23.485Z,23.00
2023-05-05T11:13:27.566Z,22.36
2023-05-05T11:15:58.157Z,22.09
2023-05-05T11:18:38.606Z,22.13
2023-05-05T11:21:19.808Z,22.12
2023-05-05T11:23:53.982Z,21.70
2023-05-05T11:26:52.529Z,21.48
2023-05-05T11:29:22.167Z,21.25
2023-05-05T11:32:17.542Z,20.71
2023-05-05T11:34:51.778Z,19.86
2023-05-05T11:37:24.500Z,19.36
2023-05-05T11:40:03.851Z,18.99
2023-05-05T11:42:32.080Z,19.17
2023-05-05T11:45:01.498Z,19.21
2023-05-05T11:47:32.145Z,19.09
2023-05-05T11:50:21.742Z,18.98
2023-05-05T11:52:50.735Z,18.90
2023-05-05T11:55:27.345Z,18.70
2023-05-05T11:57:55.516Z,18.69
2023-05-05T12:00:34.610Z,18.65
2023-05-05T12:03:03.228Z,18.74
2023-05-05T12:05:36.297Z,18.86
2023-05-05T12:08:05.355Z,18.86
2023-05-05T12:10:34.427Z,18.61
2023-05-05T12:13:02.557Z,18.31
2023-05-05T12:15:32.328Z,18.12
2023-05-05T12:18:03.029Z,18.07
2023-05-05T12:20:39.446Z,18.19
2023-05-05T12:23:08.656Z,18.35
2023-05-05T12:25:39.332Z,18.27
2023-05-05T12:28:09.795Z,18.12
2023-05-05T12:30:38.619Z,17.81
2023-05-05T12:33:09.642Z,17.60
2023-05-05T12:35:43.428Z,17.35
2023-05-05T12:38:19.724Z,17.23
2023-05-05T12:40:53.290Z,17.17
2023-05-05T12:43:32.805Z,17.21
2023-05-05T12:46:08.353Z,17.24
2023-05-05T12:48:39.242Z,17.21
2023-05-05T12:51:20.349Z,17.22
2023-05-05T12:53:50.471Z,17.29
2023-05-05T12:56:39.403Z,17.18
2023-05-05T12:59:09.053Z,17.11
2023-05-05T13:01:46.181Z,17.21
2023-05-05T13:04:18.268Z,17.29
2023-05-05T13:06:54.465Z,17.18
2023-05-05T13:09:27.480Z,17.02
2023-05-05T13:11:55.902Z,16.95
2023-05-05T13:14:25.158Z,16.87
2023-05-05T13:16:54.745Z,16.84
2023-05-05T13:19:23.963Z,17.01
2023-05-05T13:21:54.007Z,17.21
2023-05-05T13:24:28.658Z,17.30
2023-05-05T13:27:04.646Z,17.26
2023-05-05T13:29:34.557Z,17.18
2023-05-05T13:32:03.341Z,17.07
2023-05-05T13:34:32.764Z,17.10
2023-05-05T13:37:06.999Z,17.00
2023-05-05T13:39:37.242Z,17.10
2023-05-05T13:42:06.291Z,17.26
2023-05-05T13:44:35.733Z,17.28
2023-05-05T13:47:05.323Z,17.32
2023-05-05T13:49:35.794Z,17.29
2023-05-05T13:52:10.112Z,17.33
2023-05-05T13:54:40.045Z,17.10
2023-05-05T13:57:11.468Z,16.94
2023-05-05T13:59:40.954Z,16.80
2023-05-05T14:02:14.626Z,16.69
2023-05-05T14:04:43.112Z,16.52
2023-05-05T14:07:12.729Z,16.28
2023-05-05T14:09:41.798Z,16.22
2023-05-05T14:12:11.508Z,16.13
2023-05-05T14:14:40.126Z,16.03
2023-05-05T14:17:08.578Z,15.97
2023-05-05T14:19:37.465Z,15.96
2023-05-05T14:22:09.744Z,15.97
2023-05-05T14:24:45.912Z,16.03
2023-05-05T14:27:16.232Z,16.03
2023-05-05T14:29:46.553Z,15.88
2023-05-05T14:32:17.270Z,15.85
2023-05-05T14:34:50.165Z,15.79
2023-05-05T14:37:20.558Z,15.72
2023-05-05T14:39:53.529Z,15.44
2023-05-05T14:42:22.642Z,15.26
2023-05-05T14:44:54.144Z,15.15
2023-05-05T14:47:22.976Z,15.21
2023-05-05T14:49:53.189Z,15.27
2023-05-05T14:52:23.973Z,15.26
2023-05-05T14:54:56.313Z,15.22
2023-05-05T14:57:24.544Z,15.21
2023-05-05T14:59:55.286Z,15.19
2023-05-05T15:02:24.155Z,15.19
2023-05-05T15:04:53.298Z,15.19
2023-05-05T15:07:22.978Z,15.15
2023-05-05T15:09:53.190Z,15.06
2023-05-05T15:12:23.308Z,15.00
2023-05-05T15:14:51.678Z,14.87
2023-05-05T15:17:28.666Z,14.82
2023-05-05T15:19:57.135Z,15.05
2023-05-05T15:25:21.889Z,14.88
2023-05-05T15:27:55.171Z,14.80
2023-05-05T15:30:25.882Z,14.77
2023-05-05T15:32:56.764Z,14.69
2023-05-05T15:35:25.844Z,14.71
2023-05-05T15:37:55.641Z,14.71
2023-05-05T15:40:26.075Z,14.65
2023-05-05T15:43:00.689Z,14.68
2023-05-05T15:45:38.893Z,14.70
2023-05-05T15:48:11.032Z,14.70
2023-05-05T15:50:42.848Z,14.59
2023-05-05T15:53:12.668Z,14.55
2023-05-05T15:55:44.634Z,14.33
2023-05-05T15:58:15.220Z,14.56
2023-05-05T16:00:47.215Z,14.47
2023-05-05T16:03:17.047Z,14.41
2023-05-05T16:05:50.634Z,14.39
2023-05-05T16:08:22.211Z,14.43
2023-05-05T16:10:53.339Z,14.56
2023-05-05T16:13:24.600Z,14.56
2023-05-05T16:15:59.130Z,14.60
2023-05-05T16:18:31.277Z,14.54
2023-05-05T16:21:07.383Z,14.45
2023-05-05T16:23:39.164Z,14.40
2023-05-05T16:26:15.119Z,14.22
2023-05-05T16:28:45.491Z,14.18
2023-05-05T16:31:40.733Z,14.11
2023-05-05T16:34:09.023Z,14.11
2023-05-05T16:36:39.154Z,14.03
2023-05-05T16:39:08.866Z,13.96
2023-05-05T16:41:37.061Z,13.91
2023-05-05T16:44:07.113Z,13.88
2023-05-05T16:46:39.509Z,13.85
2023-05-05T16:49:09.212Z,13.78
2023-05-05T16:51:37.852Z,13.69
2023-05-05T16:54:06.585Z,13.57
2023-05-05T16:56:36.702Z,13.52
2023-05-05T16:59:07.402Z,13.53
2023-05-05T17:01:38.051Z,13.51
2023-05-05T17:04:08.472Z,13.45
2023-05-05T17:06:39.810Z,13.48
2023-05-05T17:09:11.375Z,13.46
2023-05-05T17:11:40.224Z,13.41
2023-05-05T17:14:11.930Z,13.44
2023-05-05T17:16:40.558Z,13.44
2023-05-05T17:19:13.686Z,13.41
2023-05-05T17:21:43.497Z,13.34
2023-05-05T17:24:15.232Z,13.20
2023-05-05T17:26:43.454Z,13.18
2023-05-05T17:29:15.693Z,13.17
2023-05-05T17:31:47.661Z,13.08
2023-05-05T17:34:25.266Z,13.03
2023-05-05T17:37:00.774Z,13.02
2023-05-05T17:39:30.105Z,12.97
2023-05-05T17:42:08.866Z,12.92
2023-05-05T17:44:44.077Z,12.78
2023-05-05T17:47:14.776Z,12.80
2023-05-05T17:49:43.696Z,12.60
2023-05-05T17:52:13.091Z,12.77
2023-05-05T17:54:46.706Z,12.60
2023-05-05T17:57:18.331Z,12.63
2023-05-05T17:59:49.708Z,12.50
2023-05-05T18:02:20.365Z,12.57
2023-05-05T18:04:50.772Z,12.50
2023-05-05T18:07:37.761Z,12.24
2023-05-05T18:10:16.848Z,12.41
2023-05-05T18:12:57.795Z,12.37
2023-05-05T18:15:28.092Z,12.30
2023-05-05T18:18:05.162Z,12.16
2023-05-05T18:20:39.846Z,12.26
2023-05-05T18:23:08.633Z,12.21
2023-05-05T18:25:37.181Z,12.16
2023-05-05T18:28:11.327Z,12.09
2023-05-05T18:30:41.786Z,12.04
2023-05-05T18:33:12.292Z,11.91
2023-05-05T18:35:41.014Z,11.96
2023-05-05T18:38:17.712Z,11.93
2023-05-05T18:43:48.885Z,11.67
2023-05-05T18:46:21.052Z,11.86
2023-05-05T18:48:51.172Z,11.50
2023-05-05T18:51:32.374Z,11.83
2023-05-05T18:54:01.335Z,11.79
2023-05-05T18:56:30.585Z,11.72
2023-05-05T18:59:00.550Z,11.71
2023-05-05T19:01:31.157Z,11.66
2023-05-05T19:04:18.761Z,11.61
2023-05-05T19:06:52.531Z,11.58
2023-05-05T19:09:23.774Z,11.50
2023-05-05T19:11:51.739Z,11.45
2023-05-05T19:14:24.123Z,11.37
2023-05-05T19:17:04.322Z,11.43
2023-05-05T19:19:37.253Z,11.42
2023-05-05T19:22:10.108Z,11.29
2023-05-05T19:24:45.632Z,11.33
2023-05-05T19:27:18.177Z,11.38
2023-05-05T19:29:49.384Z,11.27
2023-05-05T19:32:23.896Z,11.19
2023-05-05T19:34:54.861Z,11.27
2023-05-05T19:37:43.626Z,11.33
2023-05-05T19:40:27.178Z,11.41
2023-05-05T19:43:01.676Z,11.26
2023-05-05T19:45:39.152Z,11.27
2023-05-05T19:48:20.468Z,11.42
2023-05-05T19:50:52.167Z,11.23
2023-05-05T19:53:20.285Z,11.29
2023-05-05T19:55:50.432Z,11.40
2023-05-05T19:58:22.368Z,11.41
2023-05-05T20:00:53.034Z,11.24
2023-05-05T20:03:23.601Z,11.36
2023-05-05T20:05:53.926Z,11.39
2023-05-05T20:08:22.278Z,11.27
2023-05-05T20:10:51.466Z,11.32
2023-05-05T20:13:19.629Z,11.33
2023-05-05T20:15:51.490Z,11.30
2023-05-05T20:18:22.364Z,11.27
2023-05-05T20:20:54.239Z,11.18
2023-05-05T20:23:30.502Z,10.78
2023-05-05T20:26:04.714Z,11.01
2023-05-05T20:28:45.338Z,11.01
2023-05-05T20:31:16.608Z,10.90
2023-05-05T20:33:54.846Z,10.99
2023-05-05T20:36:32.296Z,10.94
2023-05-05T20:39:00.409Z,10.87
2023-05-05T20:41:28.788Z,10.93
2023-05-05T20:44:06.291Z,10.80
2023-05-05T20:47:04.504Z,10.58
2023-05-05T20:49:37.761Z,10.81
2023-05-05T20:52:16.320Z,10.47
2023-05-05T20:54:47.681Z,10.80
2023-05-05T20:57:17.300Z,10.50
2023-05-05T20:59:57.067Z,10.79
2023-05-05T21:02:27.221Z,10.86
2023-05-05T21:04:58.538Z,10.62
2023-05-05T21:07:29.265Z,10.68
2023-05-05T21:09:59.325Z,10.75
2023-05-05T21:12:32.408Z,10.76
2023-05-05T21:15:02.639Z,10.78
2023-05-05T21:17:32.402Z,10.77
2023-05-05T21:20:05.241Z,10.60
2023-05-05T21:22:37.172Z,10.67
2023-05-05T21:25:17.443Z,10.66
2023-05-05T21:27:46.101Z,10.57
2023-05-05T21:30:16.184Z,10.63
2023-05-05T21:32:51.957Z,10.59
2023-05-05T21:35:27.786Z,10.59
2023-05-05T21:38:02.317Z,10.20
2023-05-05T21:40:43.778Z,10.61
2023-05-05T21:43:13.105Z,10.28
2023-05-05T21:45:46.105Z,10.50
2023-05-05T21:48:14.455Z,10.52
2023-05-05T21:50:43.199Z,10.60
2023-05-05T21:53:18.331Z,10.48
2023-05-05T21:55:51.796Z,10.60
2023-05-05T21:58:20.532Z,10.47
2023-05-05T22:00:52.437Z,10.59
2023-05-05T22:03:24.509Z,10.51
2023-05-05T22:05:53.992Z,10.49
2023-05-05T22:08:33.963Z,10.39
2023-05-05T22:11:05.052Z,10.39
2023-05-05T22:13:37.845Z,10.38
2023-05-05T22:16:07.334Z,10.35
2023-05-05T22:18:39.012Z,10.24
2023-05-05T22:21:08.343Z,10.17
2023-05-05T22:23:39.431Z,10.18
2023-05-05T22:26:17.789Z,10.06
2023-05-05T22:28:52.483Z,10.02
2023-05-05T22:31:26.948Z,10.10
2023-05-05T22:33:55.428Z,10.07
2023-05-05T22:36:26.331Z,10.06
2023-05-05T22:39:00.750Z,9.93
2023-05-05T22:41:29.495Z,9.80
2023-05-05T22:43:58.450Z,9.90
2023-05-05T22:46:27.418Z,9.99
2023-05-05T22:49:07.117Z,9.97
2023-05-05T22:51:36.719Z,9.94
2023-05-05T22:54:11.397Z,9.84
2023-05-05T22:56:42.061Z,9.86
2023-05-05T22:59:14.281Z,9.78
2023-05-05T23:01:44.134Z,9.76
2023-05-05T23:04:13.881Z,9.67
2023-05-05T23:06:45.164Z,9.43
2023-05-05T23:09:27.459Z,9.50
2023-05-05T23:11:56.696Z,9.30
2023-05-05T23:14:25.001Z,9.59
2023-05-05T23:16:53.588Z,9.47
2023-05-05T23:19:29.132Z,9.38
2023-05-05T23:22:01.034Z,9.40
2023-05-05T23:24:34.943Z,9.41
2023-05-05T23:27:12.046Z,9.43
2023-05-05T23:29:44.715Z,9.37
2023-05-05T23:32:13.183Z,9.38
2023-05-05T23:34:41.571Z,9.34
2023-05-05T23:37:10.125Z,9.32
2023-05-05T23:39:42.063Z,9.29
2023-05-05T23:42:10.478Z,9.28
2023-05-05T23:44:39.069Z,9.09
2023-05-05T23:47:10.612Z,9.15
2023-05-05T23:49:41.772Z,8.99
2023-05-05T23:52:10.863Z,9.02
2023-05-05T23:54:40.375Z,8.99
2023-05-05T23:57:08.718Z,8.93
2023-05-05T23:59:37.493Z,8.84
